sensor_id;sensor_type;location;lat;lon;timestamp;pressure;altitude;pressure_sealevel;temperature;humidity
60337;BME280;46978;50.288;28.624;2024-02-21T00:00:56;99246.04;;;2.15;100.00
60337;BME280;46978;50.288;28.624;2024-02-21T00:01:58;99255.45;;;2.16;100.00
60337;BME280;46978;50.288;28.624;2024-02-21T00:02:59;99249.50;;;2.17;100.00
60337;BME280;46978;50.288;28.624;2024-02-21T00:04:01;99247.77;;;2.16;100.00
60337;BME280;46978;50.288;28.624;2024-02-21T00:05:04;99253.74;;;2.17;100.00
60337;BME280;46978;50.288;28.624;2024-02-21T00:06:06;99253.74;;;2.17;100.00
60337;BME280;46978;50.288;28.624;2024-02-21T00:07:08;99248.63;;;2.17;100.00
60337;BME280;46978;50.288;28.624;2024-02-21T00:08:09;99251.18;;;2.17;100.00
60337;BME280;46978;50.288;28.624;2024-02-21T00:09:11;99252.89;;;2.16;100.00
60337;BME280;46978;50.288;28.624;2024-02-21T00:10:13;99246.06;;;2.17;100.00
60337;BME280;46978;50.288;28.624;2024-02-21T00:11:14;99246.06;;;2.17;100.00
60337;BME280;46978;50.288;28.624;2024-02-21T00:12:16;99246.94;;;2.17;100.00
60337;BME280;46978;50.288;28.624;2024-02-21T00:13:17;99246.06;;;2.17;100.00
60337;BME280;46978;50.288;28.624;2024-02-21T00:14:19;99246.97;;;2.19;100.00
60337;BME280;46978;50.288;28.624;2024-02-21T00:15:20;99246.97;;;2.19;100.00
60337;BME280;46978;50.288;28.624;2024-02-21T00:16:22;99246.97;;;2.19;100.00
60337;BME280;46978;50.288;28.624;2024-02-21T00:17:24;99246.97;;;2.19;100.00
60337;BME280;46978;50.288;28.624;2024-02-21T00:18:25;99254.66;;;2.20;100.00
60337;BME280;46978;50.288;28.624;2024-02-21T00:19:27;99240.13;;;2.19;100.00
60337;BME280;46978;50.288;28.624;2024-02-21T00:20:29;99244.45;;;2.22;100.00
60337;BME280;46978;50.288;28.624;2024-02-21T00:21:30;99248.69;;;2.21;100.00
60337;BME280;46978;50.288;28.624;2024-02-21T00:22:32;99237.61;;;2.22;100.00
60337;BME280;46978;50.288;28.624;2024-02-21T00:23:33;99243.59;;;2.23;100.00
60337;BME280;46978;50.288;28.624;2024-02-21T00:24:35;99248.70;;;2.23;100.00
60337;BME280;46978;50.288;28.624;2024-02-21T00:25:37;99252.17;;;2.25;100.00
60337;BME280;46978;50.288;28.624;2024-02-21T00:26:38;99254.75;;;2.26;100.00
60337;BME280;46978;50.288;28.624;2024-02-21T00:27:40;99245.34;;;2.25;100.00
60337;BME280;46978;50.288;28.624;2024-02-21T00:28:42;99251.30;;;2.26;100.00
60337;BME280;46978;50.288;28.624;2024-02-21T00:29:43;99252.19;;;2.26;100.00
60337;BME280;46978;50.288;28.624;2024-02-21T00:30:45;99253.89;;;2.27;100.00
60337;BME280;46978;50.288;28.624;2024-02-21T00:31:48;99253.06;;;2.28;100.00
60337;BME280;46978;50.288;28.624;2024-02-21T00:32:50;99248.77;;;2.27;100.00
60337;BME280;46978;50.288;28.624;2024-02-21T00:33:52;99247.09;;;2.28;100.00
60337;BME280;46978;50.288;28.624;2024-02-21T00:34:53;99248.79;;;2.29;100.00
60337;BME280;46978;50.288;28.624;2024-02-21T00:35:55;99245.38;;;2.28;100.00
60337;BME280;46978;50.288;28.624;2024-02-21T00:36:57;99247.98;;;2.31;100.00
60337;BME280;46978;50.288;28.624;2024-02-21T00:37:58;99245.44;;;2.33;100.00
60337;BME280;46978;50.288;28.624;2024-02-21T00:39:00;99249.73;;;2.34;100.00
60337;BME280;46978;50.288;28.624;2024-02-21T00:40:01;99243.73;;;2.33;100.00
60337;BME280;46978;50.288;28.624;2024-02-21T00:41:03;99237.78;;;2.35;100.00
60337;BME280;46978;50.288;28.624;2024-02-21T00:42:05;99243.73;;;2.35;100.00
60337;BME280;46978;50.288;28.624;2024-02-21T00:43:06;99243.73;;;2.33;100.00
60337;BME280;46978;50.288;28.624;2024-02-21T00:44:08;99237.80;;;2.36;100.00
60337;BME280;46978;50.288;28.624;2024-02-21T00:45:09;99237.81;;;2.38;100.00
60337;BME280;46978;50.288;28.624;2024-02-21T00:46:12;99242.94;;;2.38;100.00
60337;BME280;46978;50.288;28.624;2024-02-21T00:47:13;99245.50;;;2.38;100.00
60337;BME280;46978;50.288;28.624;2024-02-21T00:48:15;99242.09;;;2.37;100.00
60337;BME280;46978;50.288;28.624;2024-02-21T00:49:17;99234.42;;;2.39;100.00
60337;BME280;46978;50.288;28.624;2024-02-21T00:50:18;99244.67;;;2.39;100.00
60337;BME280;46978;50.288;28.624;2024-02-21T00:51:20;99239.55;;;2.39;100.00
60337;BME280;46978;50.288;28.624;2024-02-21T00:52:21;99242.12;;;2.40;100.00
60337;BME280;46978;50.288;28.624;2024-02-21T00:53:23;99246.37;;;2.40;100.00
60337;BME280;46978;50.288;28.624;2024-02-21T00:54:24;99237.03;;;2.42;100.00
60337;BME280;46978;50.288;28.624;2024-02-21T00:55:27;99240.41;;;2.41;100.00
60337;BME280;46978;50.288;28.624;2024-02-21T00:56:29;99236.13;;;2.40;100.00
60337;BME280;46978;50.288;28.624;2024-02-21T00:57:31;99236.14;;;2.41;100.00
60337;BME280;46978;50.288;28.624;2024-02-21T00:58:32;99241.27;;;2.41;100.00
60337;BME280;46978;50.288;28.624;2024-02-21T00:59:34;99238.70;;;2.41;100.00
60337;BME280;46978;50.288;28.624;2024-02-21T01:00:36;99237.03;;;2.42;100.00
60337;BME280;46978;50.288;28.624;2024-02-21T01:01:38;99236.16;;;2.43;100.00
60337;BME280;46978;50.288;28.624;2024-02-21T01:02:39;99236.16;;;2.43;100.00
60337;BME280;46978;50.288;28.624;2024-02-21T01:03:41;99231.92;;;2.43;100.00
60337;BME280;46978;50.288;28.624;2024-02-21T01:04:42;99229.36;;;2.43;100.00
60337;BME280;46978;50.288;28.624;2024-02-21T01:05:44;99224.22;;;2.42;100.00
60337;BME280;46978;50.288;28.624;2024-02-21T01:06:46;99226.78;;;2.42;100.00
60337;BME280;46978;50.288;28.624;2024-02-21T01:07:47;99227.63;;;2.42;100.00
60337;BME280;46978;50.288;28.624;2024-02-21T01:08:49;99226.78;;;2.42;100.00
60337;BME280;46978;50.288;28.624;2024-02-21T01:09:51;99224.22;;;2.42;100.00
60337;BME280;46978;50.288;28.624;2024-02-21T01:10:53;99226.78;;;2.42;100.00
60337;BME280;46978;50.288;28.624;2024-02-21T01:11:54;99223.34;;;2.41;100.00
60337;BME280;46978;50.288;28.624;2024-02-21T01:12:56;99228.48;;;2.43;100.00
60337;BME280;46978;50.288;28.624;2024-02-21T01:13:57;99229.34;;;2.42;100.00
60337;BME280;46978;50.288;28.624;2024-02-21T01:14:59;99227.61;;;2.41;100.00
60337;BME280;46978;50.288;28.624;2024-02-21T01:16:00;99231.00;;;2.40;100.00
60337;BME280;46978;50.288;28.624;2024-02-21T01:17:02;99227.61;;;2.41;100.00
60337;BME280;46978;50.288;28.624;2024-02-21T01:18:04;99227.61;;;2.41;100.00
60337;BME280;46978;50.288;28.624;2024-02-21T01:19:05;99231.89;;;2.40;100.00
60337;BME280;46978;50.288;28.624;2024-02-21T01:20:08;99223.32;;;2.40;100.00
60337;BME280;46978;50.288;28.624;2024-02-21T01:21:10;99226.77;;;2.40;100.00
60337;BME280;46978;50.288;28.624;2024-02-21T01:22:11;99235.30;;;2.41;100.00
60337;BME280;46978;50.288;28.624;2024-02-21T01:23:13;99224.20;;;2.40;100.00
60337;BME280;46978;50.288;28.624;2024-02-21T01:24:14;99222.49;;;2.41;100.00
60337;BME280;46978;50.288;28.624;2024-02-21T01:25:16;99225.92;;;2.43;100.00
60337;BME280;46978;50.288;28.624;2024-02-21T01:26:18;99226.80;;;2.43;100.00
60337;BME280;46978;50.288;28.624;2024-02-21T01:27:20;99219.97;;;2.44;100.00
60337;BME280;46978;50.288;28.624;2024-02-21T01:28:21;99225.11;;;2.45;100.00
60337;BME280;46978;50.288;28.624;2024-02-21T01:29:22;99228.54;;;2.47;100.00
60337;BME280;46978;50.288;28.624;2024-02-21T01:30:24;99220.88;;;2.49;100.00
60337;BME280;46978;50.288;28.624;2024-02-21T01:31:26;99222.61;;;2.50;100.00
60337;BME280;46978;50.288;28.624;2024-02-21T01:32:27;99218.33;;;2.50;100.00
60337;BME280;46978;50.288;28.624;2024-02-21T01:33:29;99222.63;;;2.51;100.00
60337;BME280;46978;50.288;28.624;2024-02-21T01:34:30;99223.47;;;2.52;100.00
60337;BME280;46978;50.288;28.624;2024-02-21T01:35:32;99223.49;;;2.54;100.00
60337;BME280;46978;50.288;28.624;2024-02-21T01:36:33;99219.23;;;2.53;100.00
60337;BME280;46978;50.288;28.624;2024-02-21T01:37:35;99224.37;;;2.54;100.00
60337;BME280;46978;50.288;28.624;2024-02-21T01:38:36;99220.95;;;2.55;100.00
60337;BME280;46978;50.288;28.624;2024-02-21T01:39:38;99217.56;;;2.56;100.00
60337;BME280;46978;50.288;28.624;2024-02-21T01:40:40;99220.98;;;2.58;100.00
60337;BME280;46978;50.288;28.624;2024-02-21T01:41:41;99217.59;;;2.59;100.00
60337;BME280;46978;50.288;28.624;2024-02-21T01:42:43;99220.17;;;2.61;100.00
60337;BME280;46978;50.288;28.624;2024-02-21T01:43:44;99221.91;;;2.62;100.00
60337;BME280;46978;50.288;28.624;2024-02-21T01:44:46;99222.75;;;2.62;100.00
60337;BME280;46978;50.288;28.624;2024-02-21T01:45:50;99223.60;;;2.63;100.00
60337;BME280;46978;50.288;28.624;2024-02-21T01:46:52;99216.80;;;2.63;100.00
60337;BME280;46978;50.288;28.624;2024-02-21T01:47:54;99217.63;;;2.62;100.00
60337;BME280;46978;50.288;28.624;2024-02-21T01:48:57;99222.75;;;2.62;100.00
60337;BME280;46978;50.288;28.624;2024-02-21T01:49:59;99219.34;;;2.62;100.00
60337;BME280;46978;50.288;28.624;2024-02-21T01:51:02;99215.89;;;2.61;100.00
60337;BME280;46978;50.288;28.624;2024-02-21T01:52:06;99218.48;;;2.63;100.00
60337;BME280;46978;50.288;28.624;2024-02-21T01:53:08;99216.80;;;2.63;100.00
60337;BME280;46978;50.288;28.624;2024-02-21T01:54:10;99216.80;;;2.63;100.00
60337;BME280;46978;50.288;28.624;2024-02-21T01:55:13;99216.80;;;2.63;100.00
60337;BME280;46978;50.288;28.624;2024-02-21T01:56:16;99216.78;;;2.65;100.00
60337;BME280;46978;50.288;28.624;2024-02-21T01:57:18;99211.66;;;2.65;100.00
60337;BME280;46978;50.288;28.624;2024-02-21T01:58:20;99209.11;;;2.66;100.00
60337;BME280;46978;50.288;28.624;2024-02-21T01:59:22;99215.12;;;2.67;100.00
60337;BME280;46978;50.288;28.624;2024-02-21T02:00:24;99222.82;;;2.68;100.00
60337;BME280;46978;50.288;28.624;2024-02-21T02:01:26;99215.13;;;2.68;100.00
60337;BME280;46978;50.288;28.624;2024-02-21T02:02:29;99213.42;;;2.69;100.00
60337;BME280;46978;50.288;28.624;2024-02-21T02:03:31;99210.02;;;2.68;100.00
60337;BME280;46978;50.288;28.624;2024-02-21T02:04:33;99215.16;;;2.70;100.00
60337;BME280;46978;50.288;28.624;2024-02-21T02:05:35;99214.27;;;2.69;100.00
60337;BME280;46978;50.288;28.624;2024-02-21T02:06:37;99213.44;;;2.71;100.00
60337;BME280;46978;50.288;28.624;2024-02-21T02:07:39;99213.45;;;2.72;100.00
60337;BME280;46978;50.288;28.624;2024-02-21T02:08:40;99219.43;;;2.73;100.00
60337;BME280;46978;50.288;28.624;2024-02-21T02:09:42;99220.30;;;2.72;100.00
60337;BME280;46978;50.288;28.624;2024-02-21T02:10:45;99216.02;;;2.72;100.00
60337;BME280;46978;50.288;28.624;2024-02-21T02:11:46;99217.73;;;2.72;100.00
60337;BME280;46978;50.288;28.624;2024-02-21T02:12:48;99217.73;;;2.72;100.00
60337;BME280;46978;50.288;28.624;2024-02-21T02:13:49;99221.98;;;2.71;100.00
60337;BME280;46978;50.288;28.624;2024-02-21T02:15:02;99215.17;;;2.72;100.00
60337;BME280;46978;50.288;28.624;2024-02-21T02:16:04;99218.56;;;2.71;100.00
60337;BME280;46978;50.288;28.624;2024-02-21T02:17:06;99217.73;;;2.72;100.00
60337;BME280;46978;50.288;28.624;2024-02-21T02:18:08;99221.14;;;2.72;100.00
60337;BME280;46978;50.288;28.624;2024-02-21T02:19:10;99224.55;;;2.73;100.00
60337;BME280;46978;50.288;28.624;2024-02-21T02:20:12;99222.86;;;2.72;100.00
60337;BME280;46978;50.288;28.624;2024-02-21T02:21:27;99221.98;;;2.71;100.00
60337;BME280;46978;50.288;28.624;2024-02-21T02:22:28;99227.12;;;2.73;100.00
60337;BME280;46978;50.288;28.624;2024-02-21T02:23:31;99226.27;;;2.72;100.00
60337;BME280;46978;50.288;28.624;2024-02-21T02:24:33;99227.12;;;2.73;100.00
60337;BME280;46978;50.288;28.624;2024-02-21T02:25:37;99228.83;;;2.72;100.00
60337;BME280;46978;50.288;28.624;2024-02-21T02:26:39;99226.27;;;2.72;100.00
60337;BME280;46978;50.288;28.624;2024-02-21T02:27:42;99224.57;;;2.74;100.00
60337;BME280;46978;50.288;28.624;2024-02-21T02:28:43;99228.84;;;2.74;100.00
60337;BME280;46978;50.288;28.624;2024-02-21T02:29:45;99228.02;;;2.75;100.00
60337;BME280;46978;50.288;28.624;2024-02-21T02:30:47;99227.13;;;2.74;100.00
60337;BME280;46978;50.288;28.624;2024-02-21T02:31:49;99233.98;;;2.75;100.00
60337;BME280;46978;50.288;28.624;2024-02-21T02:32:51;99225.47;;;2.76;100.00
60337;BME280;46978;50.288;28.624;2024-02-21T02:33:52;99228.03;;;2.76;100.00
60337;BME280;46978;50.288;28.624;2024-02-21T02:34:54;99228.88;;;2.77;100.00
60337;BME280;46978;50.288;28.624;2024-02-21T02:35:55;99234.00;;;2.77;100.00
60337;BME280;46978;50.288;28.624;2024-02-21T02:36:57;99230.59;;;2.76;100.00
60337;BME280;46978;50.288;28.624;2024-02-21T02:37:59;99228.88;;;2.77;100.00
60337;BME280;46978;50.288;28.624;2024-02-21T02:39:00;99229.71;;;2.76;100.00
60337;BME280;46978;50.288;28.624;2024-02-21T02:40:02;99232.28;;;2.76;100.00
60337;BME280;46978;50.288;28.624;2024-02-21T02:41:04;99232.26;;;2.74;100.00
60337;BME280;46978;50.288;28.624;2024-02-21T02:42:05;99231.41;;;2.74;100.00
60337;BME280;46978;50.288;28.624;2024-02-21T02:43:07;99233.13;;;2.73;100.00
60337;BME280;46978;50.288;28.624;2024-02-21T02:44:08;99235.69;;;2.73;100.00
60337;BME280;46978;50.288;28.624;2024-02-21T02:45:10;99224.55;;;2.73;100.00
60337;BME280;46978;50.288;28.624;2024-02-21T02:46:12;99226.25;;;2.71;100.00
60337;BME280;46978;50.288;28.624;2024-02-21T02:47:13;99233.94;;;2.71;100.00
60337;BME280;46978;50.288;28.624;2024-02-21T02:48:15;99233.94;;;2.71;100.00
60337;BME280;46978;50.288;28.624;2024-02-21T02:49:16;99232.22;;;2.71;100.00
60337;BME280;46978;50.288;28.624;2024-02-21T02:50:18;99233.13;;;2.73;100.00
60337;BME280;46978;50.288;28.624;2024-02-21T02:51:20;99232.23;;;2.73;100.00
60337;BME280;46978;50.288;28.624;2024-02-21T02:52:21;99239.92;;;2.73;100.00
60337;BME280;46978;50.288;28.624;2024-02-21T02:53:23;99242.47;;;2.71;100.00
60337;BME280;46978;50.288;28.624;2024-02-21T02:54:24;99242.47;;;2.71;100.00
60337;BME280;46978;50.288;28.624;2024-02-21T02:55:27;99241.63;;;2.71;100.00
60337;BME280;46978;50.288;28.624;2024-02-21T02:56:29;99247.59;;;2.71;100.00
60337;BME280;46978;50.288;28.624;2024-02-21T02:57:31;99240.79;;;2.72;100.00
60337;BME280;46978;50.288;28.624;2024-02-21T02:58:32;99245.91;;;2.72;100.00
60337;BME280;46978;50.288;28.624;2024-02-21T02:59:34;99246.77;;;2.72;100.00
60337;BME280;46978;50.288;28.624;2024-02-21T03:00:36;99251.05;;;2.73;100.00
60337;BME280;46978;50.288;28.624;2024-02-21T03:01:37;99245.93;;;2.73;100.00
60337;BME280;46978;50.288;28.624;2024-02-21T03:02:43;99248.50;;;2.73;100.00
60337;BME280;46978;50.288;28.624;2024-02-21T03:03:43;99249.36;;;2.75;100.00
60337;BME280;46978;50.288;28.624;2024-02-21T03:04:44;99257.05;;;2.75;100.00
60337;BME280;46978;50.288;28.624;2024-02-21T03:05:46;99257.03;;;2.74;100.00
60337;BME280;46978;50.288;28.624;2024-02-21T03:06:48;99245.93;;;2.73;100.00
60337;BME280;46978;50.288;28.624;2024-02-21T03:07:49;99247.61;;;2.73;100.00
60337;BME280;46978;50.288;28.624;2024-02-21T03:08:51;99251.04;;;2.72;100.00
60337;BME280;46978;50.288;28.624;2024-02-21T03:09:52;99254.45;;;2.72;100.00
60337;BME280;46978;50.288;28.624;2024-02-21T03:10:54;99253.59;;;2.72;100.00
60337;BME280;46978;50.288;28.624;2024-02-21T03:11:55;99246.75;;;2.71;100.00
60337;BME280;46978;50.288;28.624;2024-02-21T03:12:57;99250.14;;;2.69;100.00
60337;BME280;46978;50.288;28.624;2024-02-21T03:13:58;99250.14;;;2.69;100.00
60337;BME280;46978;50.288;28.624;2024-02-21T03:15:00;99251.85;;;2.69;100.00
60337;BME280;46978;50.288;28.624;2024-02-21T03:16:02;99255.27;;;2.69;100.00
60337;BME280;46978;50.288;28.624;2024-02-21T03:17:03;99250.14;;;2.69;100.00
60337;BME280;46978;50.288;28.624;2024-02-21T03:18:05;99251.02;;;2.70;100.00
60337;BME280;46978;50.288;28.624;2024-02-21T03:19:07;99252.72;;;2.71;100.00
60337;BME280;46978;50.288;28.624;2024-02-21T03:20:10;99251.05;;;2.73;100.00
60337;BME280;46978;50.288;28.624;2024-02-21T03:21:11;99251.04;;;2.72;100.00
60337;BME280;46978;50.288;28.624;2024-02-21T03:22:13;99257.03;;;2.74;100.00
60337;BME280;46978;50.288;28.624;2024-02-21T03:23:14;99256.18;;;2.73;100.00
60337;BME280;46978;50.288;28.624;2024-02-21T03:24:16;99261.30;;;2.73;100.00
60337;BME280;46978;50.288;28.624;2024-02-21T03:25:20;99258.74;;;2.73;100.00
60337;BME280;46978;50.288;28.624;2024-02-21T03:26:22;99264.73;;;2.75;100.00
60337;BME280;46978;50.288;28.624;2024-02-21T03:27:23;99262.17;;;2.75;100.00
60337;BME280;46978;50.288;28.624;2024-02-21T03:28:25;99266.47;;;2.76;100.00
60337;BME280;46978;50.288;28.624;2024-02-21T03:29:27;99254.50;;;2.77;100.00
60337;BME280;46978;50.288;28.624;2024-02-21T03:30:28;99261.36;;;2.78;100.00
60337;BME280;46978;50.288;28.624;2024-02-21T03:31:30;99257.06;;;2.77;100.00
60337;BME280;46978;50.288;28.624;2024-02-21T03:32:32;99256.22;;;2.76;100.00
60337;BME280;46978;50.288;28.624;2024-02-21T03:33:33;99259.63;;;2.77;100.00
60337;BME280;46978;50.288;28.624;2024-02-21T03:34:35;99260.46;;;2.76;100.00
60337;BME280;46978;50.288;28.624;2024-02-21T03:35:36;99261.34;;;2.76;100.00
60337;BME280;46978;50.288;28.624;2024-02-21T03:36:38;99261.34;;;2.76;100.00
60337;BME280;46978;50.288;28.624;2024-02-21T03:37:39;99263.91;;;2.76;100.00
60337;BME280;46978;50.288;28.624;2024-02-21T03:38:41;99264.75;;;2.77;100.00
60337;BME280;46978;50.288;28.624;2024-02-21T03:39:43;99262.17;;;2.75;100.00
60337;BME280;46978;50.288;28.624;2024-02-21T03:40:45;99266.47;;;2.76;100.00
60337;BME280;46978;50.288;28.624;2024-02-21T03:41:46;99262.17;;;2.75;100.00
60337;BME280;46978;50.288;28.624;2024-02-21T03:42:47;99269.02;;;2.75;100.00
60337;BME280;46978;50.288;28.624;2024-02-21T03:43:49;99264.73;;;2.75;100.00
60337;BME280;46978;50.288;28.624;2024-02-21T03:44:50;99264.73;;;2.75;100.00
60337;BME280;46978;50.288;28.624;2024-02-21T03:45:52;99252.77;;;2.76;100.00
60337;BME280;46978;50.288;28.624;2024-02-21T03:46:54;99260.46;;;2.76;100.00
60337;BME280;46978;50.288;28.624;2024-02-21T03:47:55;99261.34;;;2.76;100.00
60337;BME280;46978;50.288;28.624;2024-02-21T03:48:57;99259.61;;;2.75;100.00
60337;BME280;46978;50.288;28.624;2024-02-21T03:49:58;99257.05;;;2.75;100.00
60337;BME280;46978;50.288;28.624;2024-02-21T03:51:00;99261.33;;;2.75;100.00
60337;BME280;46978;50.288;28.624;2024-02-21T03:52:01;99261.33;;;2.75;100.00
60337;BME280;46978;50.288;28.624;2024-02-21T03:53:03;99251.91;;;2.74;100.00
60337;BME280;46978;50.288;28.624;2024-02-21T03:54:04;99255.31;;;2.74;100.00
60337;BME280;46978;50.288;28.624;2024-02-21T03:55:07;99257.05;;;2.75;100.00
60337;BME280;46978;50.288;28.624;2024-02-21T03:56:09;99245.09;;;2.76;100.00
60337;BME280;46978;50.288;28.624;2024-02-21T03:57:10;99257.90;;;2.76;100.00
60337;BME280;46978;50.288;28.624;2024-02-21T03:58:12;99253.64;;;2.75;100.00
60337;BME280;46978;50.288;28.624;2024-02-21T03:59:13;99251.91;;;2.74;100.00
60337;BME280;46978;50.288;28.624;2024-02-21T04:00:16;99257.02;;;2.72;100.00
60337;BME280;46978;50.288;28.624;2024-02-21T04:01:18;99252.72;;;2.71;100.00
60337;BME280;46978;50.288;28.624;2024-02-21T04:02:20;99251.85;;;2.69;100.00
60337;BME280;46978;50.288;28.624;2024-02-21T04:03:21;99253.56;;;2.68;100.00
60337;BME280;46978;50.288;28.624;2024-02-21T04:04:23;99256.13;;;2.68;100.00
60337;BME280;46978;50.288;28.624;2024-02-21T04:05:24;99256.95;;;2.67;100.00
60337;BME280;46978;50.288;28.624;2024-02-21T04:06:26;99254.36;;;2.64;100.00
60337;BME280;46978;50.288;28.624;2024-02-21T04:07:28;99256.07;;;2.64;100.00
60337;BME280;46978;50.288;28.624;2024-02-21T04:08:29;99254.30;;;2.60;100.00
60337;BME280;46978;50.288;28.624;2024-02-21T04:09:31;99255.95;;;2.55;100.00
60337;BME280;46978;50.288;28.624;2024-02-21T04:10:32;99261.00;;;2.48;100.00
60337;BME280;46978;50.288;28.624;2024-02-21T04:11:34;99260.09;;;2.43;100.00
60337;BME280;46978;50.288;28.624;2024-02-21T04:12:36;99262.61;;;2.40;100.00
60337;BME280;46978;50.288;28.624;2024-02-21T04:13:38;99268.55;;;2.38;100.00
60337;BME280;46978;50.288;28.624;2024-02-21T04:14:40;99263.42;;;2.38;100.00
60337;BME280;46978;50.288;28.624;2024-02-21T04:15:41;99266.81;;;2.37;100.00
60337;BME280;46978;50.288;28.624;2024-02-21T04:16:43;99267.70;;;2.37;100.00
60337;BME280;46978;50.288;28.624;2024-02-21T04:17:44;99264.27;;;2.38;100.00
60337;BME280;46978;50.288;28.624;2024-02-21T04:18:46;99270.28;;;2.39;100.00
60337;BME280;46978;50.288;28.624;2024-02-21T04:19:47;99273.67;;;2.38;100.00
60337;BME280;46978;50.288;28.624;2024-02-21T04:20:51;99268.59;;;2.41;100.00
60337;BME280;46978;50.288;28.624;2024-02-21T04:21:53;99268.59;;;2.41;100.00
60337;BME280;46978;50.288;28.624;2024-02-21T04:22:54;99272.00;;;2.41;100.00
60337;BME280;46978;50.288;28.624;2024-02-21T04:23:56;99268.61;;;2.42;100.00
60337;BME280;46978;50.288;28.624;2024-02-21T04:24:59;99266.89;;;2.43;100.00
60337;BME280;46978;50.288;28.624;2024-02-21T04:26:01;99265.20;;;2.42;100.00
60337;BME280;46978;50.288;28.624;2024-02-21T04:27:03;99267.76;;;2.42;100.00
60337;BME280;46978;50.288;28.624;2024-02-21T04:28:05;99267.72;;;2.39;100.00
60337;BME280;46978;50.288;28.624;2024-02-21T04:29:06;99270.26;;;2.37;100.00
60337;BME280;46978;50.288;28.624;2024-02-21T04:30:09;99264.23;;;2.35;100.00
60337;BME280;46978;50.288;28.624;2024-02-21T04:31:10;99267.63;;;2.32;100.00
60337;BME280;46978;50.288;28.624;2024-02-21T04:32:12;99268.44;;;2.30;100.00
60337;BME280;46978;50.288;28.624;2024-02-21T04:33:13;99271.81;;;2.27;100.00
60337;BME280;46978;50.288;28.624;2024-02-21T04:34:15;99270.94;;;2.25;100.00
60337;BME280;46978;50.288;28.624;2024-02-21T04:35:16;99270.06;;;2.23;100.00
60337;BME280;46978;50.288;28.624;2024-02-21T04:36:18;99276.87;;;2.23;100.00
60337;BME280;46978;50.288;28.624;2024-02-21T04:37:20;99278.53;;;2.19;100.00
60337;BME280;46978;50.288;28.624;2024-02-21T04:38:21;99273.39;;;2.18;100.00
60337;BME280;46978;50.288;28.624;2024-02-21T04:39:23;99276.76;;;2.15;100.00
60337;BME280;46978;50.288;28.624;2024-02-21T04:40:25;99275.05;;;2.14;100.00
60337;BME280;46978;50.288;28.624;2024-02-21T04:41:26;99286.14;;;2.14;100.00
60337;BME280;46978;50.288;28.624;2024-02-21T04:42:28;99283.56;;;2.13;100.00
60337;BME280;46978;50.288;28.624;2024-02-21T04:43:29;99280.17;;;2.14;100.00
60337;BME280;46978;50.288;28.624;2024-02-21T04:44:31;99282.73;;;2.14;100.00
60337;BME280;46978;50.288;28.624;2024-02-21T04:45:32;99280.17;;;2.14;100.00
60337;BME280;46978;50.288;28.624;2024-02-21T04:46:34;99278.45;;;2.13;100.00
60337;BME280;46978;50.288;28.624;2024-02-21T04:47:35;99280.22;;;2.17;100.00
60337;BME280;46978;50.288;28.624;2024-02-21T04:48:37;99281.09;;;2.19;100.00
60337;BME280;46978;50.288;28.624;2024-02-21T04:49:38;99280.24;;;2.19;100.00
60337;BME280;46978;50.288;28.624;2024-02-21T04:50:40;99276.82;;;2.20;100.00
60337;BME280;46978;50.288;28.624;2024-02-21T04:51:42;99278.53;;;2.19;100.00
60337;BME280;46978;50.288;28.624;2024-02-21T04:52:43;99274.27;;;2.20;100.00
60337;BME280;46978;50.288;28.624;2024-02-21T04:53:45;99284.55;;;2.23;100.00
60337;BME280;46978;50.288;28.624;2024-02-21T04:54:46;99280.31;;;2.23;100.00
60337;BME280;46978;50.288;28.624;2024-02-21T04:55:48;99282.87;;;2.23;100.00
60337;BME280;46978;50.288;28.624;2024-02-21T04:56:50;99284.55;;;2.23;100.00
60337;BME280;46978;50.288;28.624;2024-02-21T04:57:52;99287.06;;;2.20;100.00
60337;BME280;46978;50.288;28.624;2024-02-21T04:58:53;99282.83;;;2.20;100.00
60337;BME280;46978;50.288;28.624;2024-02-21T04:59:55;99280.24;;;2.19;100.00
60337;BME280;46978;50.288;28.624;2024-02-21T05:00:56;99283.63;;;2.18;100.00
60337;BME280;46978;50.288;28.624;2024-02-21T05:02:18;99287.90;;;2.17;100.00
60337;BME280;46978;50.288;28.624;2024-02-21T05:03:19;99293.02;;;2.17;100.00
60337;BME280;46978;50.288;28.624;2024-02-21T05:04:21;99287.88;;;2.15;100.00
60337;BME280;46978;50.288;28.624;2024-02-21T05:05:22;99289.56;;;2.15;100.00
60337;BME280;46978;50.288;28.624;2024-02-21T05:06:24;99290.44;;;2.15;100.00
60337;BME280;46978;50.288;28.624;2024-02-21T05:07:26;99291.27;;;2.14;100.00
60337;BME280;46978;50.288;28.624;2024-02-21T05:08:27;99290.39;;;2.12;100.00
60337;BME280;46978;50.288;28.624;2024-02-21T05:09:29;99285.30;;;2.14;100.00
60337;BME280;46978;50.288;28.624;2024-02-21T05:10:30;99290.41;;;2.14;100.00
60337;BME280;46978;50.288;28.624;2024-02-21T05:11:32;99287.86;;;2.14;100.00
60337;BME280;46978;50.288;28.624;2024-02-21T05:12:33;99279.31;;;2.15;100.00
60337;BME280;46978;50.288;28.624;2024-02-21T05:13:35;99286.17;;;2.16;100.00
60337;BME280;46978;50.288;28.624;2024-02-21T05:14:36;99291.31;;;2.18;100.00
60337;BME280;46978;50.288;28.624;2024-02-21T05:15:38;99292.16;;;2.18;100.00
60337;BME280;46978;50.288;28.624;2024-02-21T05:16:39;99294.74;;;2.20;100.00
60337;BME280;46978;50.288;28.624;2024-02-21T05:17:41;99290.50;;;2.20;100.00
60337;BME280;46978;50.288;28.624;2024-02-21T05:18:42;99293.94;;;2.22;100.00
60337;BME280;46978;50.288;28.624;2024-02-21T05:19:44;99295.67;;;2.23;100.00
60337;BME280;46978;50.288;28.624;2024-02-21T05:20:46;99299.05;;;2.22;100.00
60337;BME280;46978;50.288;28.624;2024-02-21T05:21:47;99302.45;;;2.21;100.00
60337;BME280;46978;50.288;28.624;2024-02-21T05:22:49;99294.74;;;2.20;100.00
60337;BME280;46978;50.288;28.624;2024-02-21T05:23:51;99299.86;;;2.20;100.00